createdAt,value
2023-06-10T00:01:49.206Z,5.15
2023-06-10T00:04:17.840Z,5.68
2023-06-10T00:06:50.637Z,5.65
2023-06-10T00:09:19.695Z,5.97
2023-06-10T00:11:47.355Z,5.10
2023-06-10T00:14:15.122Z,5.32
2023-06-10T00:16:46.438Z,5.45
2023-06-10T00:19:16.623Z,5.38
2023-06-10T00:21:45.917Z,6.10
2023-06-10T00:24:15.240Z,5.55
2023-06-10T00:26:45.783Z,5.57
2023-06-10T00:29:13.502Z,6.03
2023-06-10T00:31:41.181Z,5.50
2023-06-10T00:34:09.355Z,6.15
2023-06-10T00:36:37.524Z,6.32
2023-06-10T00:39:05.692Z,6.00
2023-06-10T00:41:35.065Z,6.05
2023-06-10T00:44:02.906Z,6.13
2023-06-10T00:46:33.223Z,5.75
2023-06-10T00:49:01.034Z,6.43
2023-06-10T00:51:28.851Z,6.05
2023-06-10T00:53:57.007Z,6.25
2023-06-10T00:56:24.770Z,5.68
2023-06-10T00:58:54.056Z,5.63
2023-06-10T01:01:22.102Z,6.30
2023-06-10T01:03:49.768Z,6.47
2023-06-10T01:06:21.429Z,6.25
2023-06-10T01:08:52.547Z,6.22
2023-06-10T01:11:23.145Z,6.03
2023-06-10T01:13:52.221Z,6.18
2023-06-10T01:16:21.533Z,5.60
2023-06-10T01:18:49.439Z,5.82
2023-06-10T01:21:22.442Z,6.85
2023-06-10T01:23:50.217Z,6.15
2023-06-10T01:26:17.992Z,6.65
2023-06-10T01:28:49.544Z,6.43
2023-06-10T01:31:22.319Z,5.78
2023-06-10T01:33:52.069Z,5.93
2023-06-10T01:36:22.152Z,6.80
2023-06-10T01:38:50.038Z,6.30
2023-06-10T01:41:18.443Z,5.88
2023-06-10T01:43:46.975Z,6.63
2023-06-10T01:46:14.773Z,6.90
2023-06-10T01:48:43.177Z,7.05
2023-06-10T01:51:10.858Z,6.28
2023-06-10T01:53:39.893Z,5.97
2023-06-10T01:56:07.549Z,6.78
2023-06-10T01:58:35.192Z,6.53
2023-06-10T02:01:02.850Z,7.28
2023-06-10T02:03:30.800Z,6.40
2023-06-10T02:05:58.524Z,6.32
2023-06-10T02:08:26.173Z,6.45
2023-06-10T02:10:55.615Z,6.25
2023-06-10T02:13:23.479Z,6.90
2023-06-10T02:15:51.078Z,6.65
2023-06-10T02:18:21.725Z,6.63
2023-06-10T02:20:49.777Z,6.53
2023-06-10T02:23:17.388Z,6.55
2023-06-10T02:25:45.883Z,6.57
2023-06-10T02:28:15.736Z,7.30
2023-06-10T02:30:43.671Z,6.43
2023-06-10T02:33:13.013Z,7.60
2023-06-10T02:35:41.033Z,6.80
2023-06-10T02:38:08.724Z,7.22
2023-06-10T02:40:36.354Z,7.78
2023-06-10T02:43:04.657Z,7.63
2023-06-10T02:45:33.774Z,7.28
2023-06-10T02:48:01.429Z,8.55
2023-06-10T02:50:29.543Z,7.32
2023-06-10T02:52:57.160Z,6.25
2023-06-10T02:55:27.220Z,6.60
2023-06-10T02:57:55.767Z,6.88
2023-06-10T03:00:23.840Z,7.30
2023-06-10T03:02:53.103Z,7.15
2023-06-10T03:05:20.913Z,6.53
2023-06-10T03:07:48.688Z,7.53
2023-06-10T03:10:17.092Z,7.68
2023-06-10T03:12:44.767Z,7.05
2023-06-10T03:15:12.788Z,7.32
2023-06-10T03:17:40.686Z,6.53
2023-06-10T03:20:11.483Z,6.85
2023-06-10T03:22:40.061Z,7.40
2023-06-10T03:25:09.506Z,6.90
2023-06-10T03:27:37.456Z,6.95
2023-06-10T03:30:05.383Z,7.22
2023-06-10T03:32:33.144Z,7.28
2023-06-10T03:35:00.837Z,6.90
2023-06-10T03:37:29.909Z,7.03
2023-06-10T03:39:57.709Z,7.38
2023-06-10T03:42:25.413Z,6.88
2023-06-10T03:44:53.154Z,6.20
2023-06-10T03:47:20.898Z,6.65
2023-06-10T03:49:49.012Z,6.90
2023-06-10T03:52:16.649Z,7.50
2023-06-10T03:54:45.672Z,7.25
2023-06-10T03:57:13.326Z,8.10
2023-06-10T03:59:41.106Z,7.20
2023-06-10T04:02:09.967Z,7.72
2023-06-10T04:04:38.677Z,6.97
2023-06-10T04:07:06.597Z,6.47
2023-06-10T04:09:34.428Z,6.75
2023-06-10T04:12:03.611Z,7.50
2023-06-10T04:14:31.613Z,7.93
2023-06-10T04:16:59.387Z,7.63
2023-06-10T04:19:27.060Z,7.28
2023-06-10T04:21:54.669Z,7.68
2023-06-10T04:24:22.371Z,8.18
2023-06-10T04:26:50.136Z,6.30
2023-06-10T04:29:19.162Z,7.60
2023-06-10T04:31:47.785Z,8.00
2023-06-10T04:34:15.590Z,7.45
2023-06-10T04:36:43.690Z,7.20
2023-06-10T04:39:11.702Z,7.40
2023-06-10T04:41:39.316Z,7.28
2023-06-10T04:44:07.141Z,7.80
2023-06-10T04:46:36.733Z,7.55
2023-06-10T04:49:06.037Z,7.60
2023-06-10T04:51:33.885Z,7.57
2023-06-10T04:54:03.689Z,7.70
2023-06-10T04:56:31.997Z,8.23
2023-06-10T04:58:59.685Z,7.38
2023-06-10T05:01:27.446Z,7.25
2023-06-10T05:03:56.522Z,7.25
2023-06-10T05:06:24.168Z,7.47
2023-06-10T05:08:51.813Z,7.88
2023-06-10T05:11:19.421Z,8.45
2023-06-10T05:13:47.083Z,7.15
2023-06-10T05:16:16.125Z,7.75
2023-06-10T05:18:43.842Z,7.55
2023-06-10T05:21:12.871Z,7.53
2023-06-10T05:23:40.884Z,7.60
2023-06-10T05:26:08.619Z,7.97
2023-06-10T05:28:36.392Z,7.57
2023-06-10T05:31:04.030Z,8.07
2023-06-10T05:33:31.897Z,8.15
2023-06-10T05:35:59.531Z,7.28
2023-06-10T05:38:28.571Z,8.15
2023-06-10T05:40:57.867Z,7.35
2023-06-10T05:43:25.510Z,8.05
2023-06-10T05:45:53.214Z,8.00
2023-06-10T05:48:22.278Z,7.97
2023-06-10T05:50:50.188Z,8.25
2023-06-10T05:53:17.912Z,7.97
2023-06-10T05:55:47.430Z,7.68
2023-06-10T05:58:15.648Z,9.15
2023-06-10T06:00:43.512Z,7.80
2023-06-10T06:03:11.901Z,8.60
2023-06-10T06:05:39.731Z,7.32
2023-06-10T06:08:07.603Z,8.27
2023-06-10T06:10:35.754Z,7.82
2023-06-10T06:13:04.876Z,8.32
2023-06-10T06:15:32.560Z,7.97
2023-06-10T06:18:00.228Z,7.68
2023-06-10T06:20:27.904Z,8.18
2023-06-10T06:22:55.553Z,8.05
2023-06-10T06:25:23.253Z,7.82
2023-06-10T06:27:50.893Z,7.35
2023-06-10T06:30:19.982Z,7.75
2023-06-10T06:32:47.645Z,7.85
2023-06-10T06:35:15.370Z,7.53
2023-06-10T06:37:43.020Z,7.82
2023-06-10T06:40:11.218Z,7.57
2023-06-10T06:42:38.973Z,7.15
2023-06-10T06:45:07.693Z,6.88
2023-06-10T06:47:37.031Z,7.45
2023-06-10T06:50:05.062Z,7.65
2023-06-10T06:52:32.804Z,7.35
2023-06-10T06:55:00.480Z,7.88
2023-06-10T06:57:28.083Z,7.43
2023-06-10T06:59:55.870Z,6.78
2023-06-10T07:02:23.815Z,7.57
2023-06-10T07:04:54.769Z,7.30
2023-06-10T07:07:22.453Z,7.22
2023-06-10T07:09:50.187Z,6.90
2023-06-10T07:12:18.896Z,7.07
2023-06-10T07:14:46.678Z,7.43
2023-06-10T07:17:14.453Z,7.43
2023-06-10T07:19:42.743Z,7.13
2023-06-10T07:22:11.714Z,8.02
2023-06-10T07:24:39.568Z,7.03
2023-06-10T07:27:08.257Z,7.10
2023-06-10T07:29:37.314Z,6.57
2023-06-10T07:32:05.448Z,6.70
2023-06-10T07:34:33.068Z,6.63
2023-06-10T07:37:00.868Z,6.57
2023-06-10T07:39:29.863Z,7.10
2023-06-10T07:41:58.192Z,6.70
2023-06-10T07:44:26.027Z,6.53
2023-06-10T07:46:53.727Z,6.70
2023-06-10T07:49:21.482Z,6.07
2023-06-10T07:51:49.113Z,6.25
2023-06-10T07:54:17.950Z,5.95
2023-06-10T07:56:47.223Z,6.78
2023-06-10T07:59:15.506Z,6.93
2023-06-10T08:01:43.999Z,6.32
2023-06-10T08:04:12.177Z,6.55
2023-06-10T08:06:40.057Z,5.97
2023-06-10T08:09:07.906Z,6.80
2023-06-10T08:11:35.569Z,6.22
2023-06-10T08:14:04.609Z,6.28
2023-06-10T08:16:32.329Z,6.80
2023-06-10T08:18:59.979Z,5.95
2023-06-10T08:21:29.635Z,6.00
2023-06-10T08:23:57.338Z,5.75
2023-06-10T08:26:25.974Z,5.95
2023-06-10T08:28:53.758Z,5.68
2023-06-10T08:31:24.641Z,5.53
2023-06-10T08:33:52.551Z,5.63
2023-06-10T08:36:20.330Z,5.25
2023-06-10T08:38:47.968Z,5.88
2023-06-10T08:41:16.548Z,6.93
2023-06-10T08:43:46.085Z,6.00
2023-06-10T08:46:15.067Z,5.93
2023-06-10T08:48:46.107Z,5.32
2023-06-10T08:51:13.791Z,5.28
2023-06-10T08:53:50.242Z,5.57
2023-06-10T08:56:18.596Z,4.95
2023-06-10T08:58:47.048Z,5.25
2023-06-10T09:01:15.168Z,4.32
2023-06-10T09:03:43.711Z,5.53
2023-06-10T09:06:12.886Z,5.07
2023-06-10T09:08:41.065Z,5.30
2023-06-10T09:11:08.806Z,5.40
2023-06-10T09:13:36.541Z,4.95
2023-06-10T09:16:04.271Z,4.82
2023-06-10T09:18:33.087Z,4.38
2023-06-10T09:21:00.787Z,5.70
2023-06-10T09:23:31.377Z,4.97
2023-06-10T09:25:59.929Z,5.05
2023-06-10T09:28:27.755Z,4.68
2023-06-10T09:31:04.750Z,4.88
2023-06-10T09:33:32.972Z,5.15
2023-06-10T09:36:03.194Z,5.07
2023-06-10T09:38:35.833Z,4.97
2023-06-10T09:41:04.847Z,4.78
2023-06-10T09:43:42.434Z,5.20
2023-06-10T09:46:16.841Z,5.18
2023-06-10T09:51:13.036Z,4.53
2023-06-10T09:53:42.351Z,5.50
2023-06-10T09:56:11.179Z,5.38
2023-06-10T09:58:39.468Z,5.70
2023-06-10T10:01:07.625Z,5.95
2023-06-10T10:03:35.534Z,5.07
2023-06-10T10:06:03.321Z,5.63
2023-06-10T10:08:31.209Z,5.68
2023-06-10T10:11:00.654Z,4.97
2023-06-10T10:13:29.105Z,5.38
2023-06-10T10:15:58.286Z,6.18
2023-06-10T10:18:30.083Z,5.60
2023-06-10T10:20:59.142Z,5.43
2023-06-10T10:23:28.809Z,5.57
2023-06-10T10:25:57.227Z,4.93
2023-06-10T10:28:27.982Z,5.38
2023-06-10T10:30:56.833Z,6.35
2023-06-10T10:33:30.628Z,5.43
2023-06-10T10:35:58.873Z,5.10
2023-06-10T10:38:27.212Z,5.38
2023-06-10T10:41:00.726Z,5.13
2023-06-10T10:43:32.884Z,5.30
2023-06-10T10:46:01.212Z,4.97
2023-06-10T10:48:30.754Z,5.38
2023-06-10T10:50:59.187Z,5.65
2023-06-10T10:53:27.567Z,5.20
2023-06-10T10:56:01.896Z,4.80
2023-06-10T11:00:58.598Z,5.20
2023-06-10T11:03:30.352Z,5.88
2023-06-10T11:05:59.620Z,5.18
2023-06-10T11:08:45.825Z,5.28
2023-06-10T11:11:20.090Z,5.22
2023-06-10T11:13:59.687Z,5.75
2023-06-10T11:16:29.677Z,4.90
2023-06-10T11:18:57.490Z,5.20
2023-06-10T11:21:28.473Z,4.75
2023-06-10T11:24:08.968Z,5.70
2023-06-10T11:26:36.776Z,5.25
2023-06-10T11:29:10.839Z,5.53
2023-06-10T11:31:44.908Z,5.05
2023-06-10T11:34:14.459Z,5.03
2023-06-10T11:36:43.810Z,5.20
2023-06-10T11:39:12.120Z,4.90
2023-06-10T11:41:41.123Z,5.75
2023-06-10T11:44:12.487Z,5.30
2023-06-10T11:46:40.682Z,5.03
2023-06-10T11:49:09.743Z,5.63
2023-06-10T11:51:38.023Z,4.95
2023-06-10T11:54:06.075Z,4.50
2023-06-10T11:56:34.663Z,4.80
2023-06-10T11:59:05.799Z,4.43
2023-06-10T12:01:36.540Z,5.15
2023-06-10T12:04:05.278Z,4.95
2023-06-10T12:06:44.664Z,5.20
2023-06-10T12:09:24.102Z,4.80
2023-06-10T12:11:54.639Z,4.80
2023-06-10T12:14:40.808Z,4.68
2023-06-10T12:17:08.461Z,4.93
2023-06-10T12:19:41.398Z,4.93
2023-06-10T12:22:10.707Z,4.60
2023-06-10T12:24:45.870Z,5.28
2023-06-10T12:27:13.966Z,5.53
2023-06-10T12:29:41.677Z,5.30
2023-06-10T12:32:10.689Z,4.57
2023-06-10T12:34:39.470Z,5.28
2023-06-10T12:37:07.846Z,4.68
2023-06-10T12:39:36.908Z,4.82
2023-06-10T12:42:05.625Z,4.57
2023-06-10T12:44:34.128Z,5.05
2023-06-10T12:47:02.142Z,4.90
2023-06-10T12:49:29.762Z,5.25
2023-06-10T12:51:57.451Z,5.22
2023-06-10T12:54:25.324Z,5.18
2023-06-10T12:56:54.354Z,4.90
2023-06-10T12:59:22.022Z,5.05
2023-06-10T13:01:52.849Z,5.30
2023-06-10T13:04:20.847Z,5.25
2023-06-10T13:06:50.106Z,5.32
2023-06-10T13:09:17.919Z,4.70
2023-06-10T13:11:45.597Z,5.53
2023-06-10T13:14:14.656Z,5.22
2023-06-10T13:16:42.270Z,4.85
2023-06-10T13:19:09.968Z,5.43
2023-06-10T13:21:40.767Z,5.78
2023-06-10T13:24:09.805Z,5.93
2023-06-10T13:26:37.500Z,5.35
2023-06-10T13:29:05.233Z,6.35
2023-06-10T13:31:34.368Z,5.22
2023-06-10T13:34:02.028Z,5.65
2023-06-10T13:36:29.883Z,5.85
2023-06-10T13:38:57.532Z,5.65
2023-06-10T13:41:26.314Z,5.35
2023-06-10T13:43:54.061Z,5.55
2023-06-10T13:46:28.397Z,6.10
2023-06-10T13:51:24.869Z,5.60
2023-06-10T13:53:52.954Z,5.47
2023-06-10T13:56:20.708Z,5.78
2023-06-10T13:58:49.313Z,5.80
2023-06-10T14:01:16.973Z,5.63
2023-06-10T14:03:44.823Z,5.97
2023-06-10T14:06:14.028Z,5.60
2023-06-10T14:08:43.674Z,6.05
2023-06-10T14:11:11.895Z,5.93
2023-06-10T14:13:40.970Z,5.78
2023-06-10T14:16:08.677Z,5.60
2023-06-10T14:18:36.867Z,5.50
2023-06-10T14:21:04.614Z,6.05
2023-06-10T14:23:32.419Z,5.70
2023-06-10T14:26:02.090Z,6.03
2023-06-10T14:28:30.132Z,5.60
2023-06-10T14:30:58.870Z,6.72
2023-06-10T14:33:26.640Z,6.28
2023-06-10T14:35:54.323Z,6.05
2023-06-10T14:38:22.227Z,5.72
2023-06-10T14:40:49.828Z,5.75
2023-06-10T14:43:18.889Z,5.82
2023-06-10T14:45:47.136Z,5.97
2023-06-10T14:48:14.799Z,6.30
2023-06-10T14:50:46.178Z,5.50
2023-06-10T14:53:16.328Z,6.47
2023-06-10T14:55:44.320Z,5.35
2023-06-10T14:58:12.040Z,5.72
2023-06-10T15:00:41.047Z,5.30
2023-06-10T15:03:08.848Z,6.28
2023-06-10T15:05:38.410Z,6.43
2023-06-10T15:08:06.380Z,6.25
2023-06-10T15:10:34.318Z,6.32
2023-06-10T15:13:01.989Z,5.57
2023-06-10T15:15:29.631Z,6.10
2023-06-10T15:18:00.733Z,5.97
2023-06-10T15:20:28.493Z,5.60
2023-06-10T15:22:56.209Z,6.57
2023-06-10T15:27:54.801Z,6.18
2023-06-10T15:30:22.680Z,6.10
2023-06-10T15:32:50.398Z,6.28
2023-06-10T15:35:19.541Z,6.35
2023-06-10T15:37:47.321Z,6.13
2023-06-10T15:40:15.053Z,6.97
2023-06-10T15:42:42.780Z,7.22
2023-06-10T15:45:11.104Z,6.18
2023-06-10T15:47:38.905Z,6.50
2023-06-10T15:50:07.379Z,6.47
2023-06-10T15:52:36.611Z,6.18
2023-06-10T15:55:04.384Z,5.70
2023-06-10T15:57:32.032Z,6.22
2023-06-10T15:59:59.880Z,5.75
2023-06-10T16:02:27.619Z,6.15
2023-06-10T16:04:55.415Z,6.43
2023-06-10T16:07:23.186Z,7.30
2023-06-10T16:09:52.334Z,5.63
2023-06-10T16:12:19.984Z,5.80
2023-06-10T16:14:47.664Z,6.07
2023-06-10T16:17:15.559Z,6.82
2023-06-10T16:19:43.488Z,6.10
2023-06-10T16:22:11.383Z,6.78
2023-06-10T16:24:39.209Z,6.35
2023-06-10T16:27:09.050Z,6.55
2023-06-10T16:29:37.031Z,5.88
2023-06-10T16:32:04.872Z,6.60
2023-06-10T16:34:33.496Z,6.45
2023-06-10T16:37:01.311Z,6.20
2023-06-10T16:39:29.005Z,6.25
2023-06-10T16:41:56.699Z,5.82
2023-06-10T16:44:26.280Z,6.05
2023-06-10T16:46:53.991Z,5.53
2023-06-10T16:49:21.816Z,5.63
2023-06-10T16:51:49.601Z,6.47
2023-06-10T16:54:17.298Z,6.53
2023-06-10T16:56:44.963Z,5.93
2023-06-10T16:59:12.701Z,5.57
2023-06-10T17:01:41.905Z,6.43
2023-06-10T17:04:09.653Z,5.97
2023-06-10T17:06:37.261Z,6.35
2023-06-10T17:09:05.082Z,6.13
2023-06-10T17:11:34.245Z,5.60
2023-06-10T17:14:01.962Z,6.10
2023-06-10T17:16:29.697Z,6.22
2023-06-10T17:18:59.591Z,5.43
2023-06-10T17:21:28.151Z,5.70
2023-06-10T17:23:56.215Z,6.72
2023-06-10T17:26:24.115Z,6.28
2023-06-10T17:28:51.706Z,5.57
2023-06-10T17:31:19.622Z,6.53
2023-06-10T17:33:47.426Z,5.97
2023-06-10T17:36:16.478Z,6.47
2023-06-10T17:38:44.166Z,6.03
2023-06-10T17:41:11.872Z,5.72
2023-06-10T17:43:39.477Z,6.10
2023-06-10T17:46:07.401Z,5.95
2023-06-10T17:48:35.016Z,7.10
2023-06-10T17:51:02.772Z,6.30
2023-06-10T17:53:31.851Z,5.40
2023-06-10T17:56:01.856Z,6.65
2023-06-10T17:58:30.029Z,6.57
2023-06-10T18:00:58.642Z,6.03
2023-06-10T18:03:27.713Z,5.78
2023-06-10T18:05:56.262Z,6.07
2023-06-10T18:08:29.341Z,5.63
2023-06-10T18:10:58.361Z,5.82
2023-06-10T18:13:26.130Z,5.90
2023-06-10T18:15:53.841Z,5.40
2023-06-10T18:18:21.570Z,5.40
2023-06-10T18:20:49.501Z,5.68
2023-06-10T18:23:17.726Z,5.85
2023-06-10T18:25:45.421Z,6.57
2023-06-10T18:28:14.578Z,6.45
2023-06-10T18:30:42.316Z,6.43
2023-06-10T18:33:10.081Z,6.32
2023-06-10T18:35:39.617Z,6.28
2023-06-10T18:38:07.217Z,5.43
2023-06-10T18:40:34.921Z,5.95
2023-06-10T18:43:02.595Z,5.80
2023-06-10T18:45:31.824Z,5.95
2023-06-10T18:47:59.707Z,5.93
2023-06-10T18:50:27.613Z,6.03
2023-06-10T18:52:55.476Z,6.03
2023-06-10T18:55:26.800Z,6.35
2023-06-10T18:57:54.541Z,6.05
2023-06-10T19:00:22.253Z,5.28
2023-06-10T19:02:51.343Z,5.70
2023-06-10T19:05:20.033Z,6.38
2023-06-10T19:07:47.669Z,5.80
2023-06-10T19:10:15.414Z,5.32
2023-06-10T19:12:43.227Z,5.80
2023-06-10T19:15:11.608Z,5.30
2023-06-10T19:17:39.632Z,6.07
2023-06-10T19:20:10.469Z,5.60
2023-06-10T19:22:38.263Z,5.80
2023-06-10T19:25:07.864Z,6.15
2023-06-10T19:27:36.017Z,6.28
2023-06-10T19:30:05.120Z,6.22
2023-06-10T19:32:32.947Z,6.60
2023-06-10T19:35:01.081Z,6.45
2023-06-10T19:37:30.063Z,6.97
2023-06-10T19:39:57.726Z,7.03
2023-06-10T19:42:25.536Z,6.15
2023-06-10T19:44:53.188Z,6.53
2023-06-10T19:47:20.920Z,6.25
2023-06-10T19:49:48.596Z,6.43
2023-06-10T19:52:16.353Z,6.57
2023-06-10T19:54:46.721Z,5.65
2023-06-10T19:57:15.238Z,5.88
2023-06-10T19:59:42.899Z,7.03
2023-06-10T20:02:10.580Z,6.30
2023-06-10T20:04:38.362Z,6.13
2023-06-10T20:07:06.425Z,6.40
2023-06-10T20:09:34.083Z,6.88
2023-06-10T20:12:04.817Z,7.35
2023-06-10T20:14:32.788Z,6.32
2023-06-10T20:17:00.390Z,6.32
2023-06-10T20:19:28.160Z,5.72
2023-06-10T20:21:55.813Z,6.30
2023-06-10T20:24:23.669Z,6.10
2023-06-10T20:26:51.538Z,6.75
2023-06-10T20:29:21.655Z,6.13
2023-06-10T20:31:49.365Z,7.68
2023-06-10T20:34:17.071Z,5.82
2023-06-10T20:36:44.690Z,6.53
2023-06-10T20:39:13.242Z,6.85
2023-06-10T20:41:41.050Z,6.75
2023-06-10T20:44:08.809Z,5.95
2023-06-10T20:46:38.654Z,5.97
2023-06-10T20:49:06.486Z,6.20
2023-06-10T20:51:34.421Z,6.45
2023-06-10T20:54:02.127Z,6.47
2023-06-10T20:56:30.072Z,6.25
2023-06-10T20:58:57.740Z,6.93
2023-06-10T21:01:26.650Z,6.15
2023-06-10T21:03:55.911Z,7.15
2023-06-10T21:06:23.999Z,6.25
2023-06-10T21:08:52.453Z,6.10
2023-06-10T21:11:20.798Z,6.10
2023-06-10T21:13:48.578Z,6.72
2023-06-10T21:16:16.546Z,6.47
2023-06-10T21:18:44.200Z,6.32
2023-06-10T21:21:13.241Z,6.60
2023-06-10T21:23:40.969Z,7.20
2023-06-10T21:26:08.764Z,6.75
2023-06-10T21:28:36.685Z,6.47
2023-06-10T21:31:05.043Z,6.47
2023-06-10T21:33:32.768Z,7.40
2023-06-10T21:36:00.431Z,6.97
2023-06-10T21:38:29.440Z,6.70
2023-06-10T21:40:57.653Z,6.38
2023-06-10T21:43:25.541Z,6.47
2023-06-10T21:45:56.408Z,6.85
2023-06-10T21:48:24.986Z,6.28
2023-06-10T21:50:52.637Z,7.07
2023-06-10T21:53:20.415Z,6.80
2023-06-10T21:55:49.382Z,6.80
2023-06-10T21:58:17.082Z,7.57
2023-06-10T22:00:44.812Z,6.95
2023-06-10T22:03:12.716Z,7.85
2023-06-10T22:05:40.499Z,6.75
2023-06-10T22:08:08.113Z,7.35
2023-06-10T22:10:36.364Z,7.05
2023-06-10T22:13:09.025Z,6.78
2023-06-10T22:15:36.804Z,7.00
2023-06-10T22:18:05.417Z,6.80
2023-06-10T22:20:33.428Z,8.23
2023-06-10T22:23:01.090Z,7.20
2023-06-10T22:25:28.733Z,6.85
2023-06-10T22:27:56.413Z,7.65
2023-06-10T22:30:26.004Z,8.10
2023-06-10T22:32:53.950Z,8.48
2023-06-10T22:35:21.639Z,7.43
2023-06-10T22:37:49.258Z,7.45
2023-06-10T22:40:16.907Z,8.48
2023-06-10T22:42:44.564Z,7.68
2023-06-10T22:45:12.627Z,7.28
2023-06-10T22:47:41.952Z,6.57
2023-06-10T22:50:10.029Z,7.38
2023-06-10T22:52:37.671Z,7.80
2023-06-10T22:55:06.590Z,8.25
2023-06-10T22:57:38.498Z,7.13
2023-06-10T23:00:07.396Z,7.30
2023-06-10T23:02:37.062Z,7.57
2023-06-10T23:05:06.668Z,7.38
2023-06-10T23:07:34.677Z,7.35
2023-06-10T23:10:02.263Z,7.05
2023-06-10T23:12:29.919Z,7.18
2023-06-10T23:14:57.591Z,7.47
2023-06-10T23:17:25.729Z,7.40
2023-06-10T23:19:53.337Z,6.53
2023-06-10T23:22:24.018Z,7.07
2023-06-10T23:24:51.757Z,7.35
2023-06-10T23:27:21.668Z,7.07
2023-06-10T23:29:58.513Z,7.15
2023-06-10T23:32:27.650Z,7.68
2023-06-10T23:34:55.827Z,7.05
2023-06-10T23:37:25.058Z,7.70
2023-06-10T23:39:53.136Z,6.85
2023-06-10T23:42:20.812Z,7.35
2023-06-10T23:44:48.604Z,7.97
2023-06-10T23:47:17.006Z,7.28
2023-06-10T23:49:46.321Z,8.13
2023-06-10T23:52:14.584Z,8.23
2023-06-10T23:54:43.654Z,7.75
2023-06-10T23:57:11.340Z,7.50
2023-06-10T23:59:39.017Z,7.40
